Time;durP1;ratioP1;P1;durP2;ratioP2;P2;SDS_P1;SDS_P2;PMS_P1;PMS_P2;Temp;Humidity;BMP_temperature;BMP_pressure;BME280_temperature;BME280_humidity;BME280_pressure;Samples;Min_cycle;Max_cycle;Signal;HPM_P1;HPM_P2
2022/08/23 00:02:26;;;;;;;7.63;4.00;;;17.30;99.90;;;;;;6275887;22;20023;-90
2022/08/23 00:04:52;;;;;;;8.65;4.60;;;17.30;99.90;;;;;;6303420;22;20458;-91
2022/08/23 00:07:18;;;;;;;8.80;4.53;;;17.30;99.90;;;;;;6276012;22;20016;-91
2022/08/23 00:09:44;;;;;;;9.40;4.78;;;17.30;99.90;;;;;;6303441;22;20015;-91
2022/08/23 00:12:20;;;;;;;11.02;5.40;;;17.30;99.90;;;;;;6274686;22;20042;-92
2022/08/23 00:14:52;;;;;;;7.90;4.95;;;17.30;99.90;;;;;;6303247;22;20069;-92
2022/08/23 00:17:18;;;;;;;8.38;5.25;;;17.30;99.90;;;;;;6275928;22;20065;-91
2022/08/23 00:19:45;;;;;;;12.40;5.00;;;17.30;99.90;;;;;;6275896;22;20415;-91
2022/08/23 00:22:11;;;;;;;9.95;4.80;;;17.20;99.90;;;;;;6303382;22;20513;-91
2022/08/23 00:24:37;;;;;;;11.20;4.68;;;17.20;99.90;;;;;;6276055;22;20007;-91
2022/08/23 00:27:09;;;;;;;8.88;5.05;;;17.50;99.90;;;;;;6275514;22;20054;-90
2022/08/23 00:29:48;;;;;;;11.80;5.60;;;17.20;99.90;;;;;;6181650;23;20025;-91
2022/08/23 00:32:25;;;;;;;11.50;5.40;;;17.20;99.90;;;;;;6175134;23;20040;-91
2022/08/23 00:34:51;;;;;;;9.20;5.65;;;17.30;99.90;;;;;;6174666;23;20013;-91
2022/08/23 00:37:17;;;;;;;8.27;5.32;;;17.20;99.90;;;;;;6149987;22;20020;-91
2022/08/23 00:39:44;;;;;;;8.50;4.75;;;17.10;99.90;;;;;;6149994;23;20012;-91
2022/08/23 00:47:49;;;;;;;11.27;6.40;;;17.10;99.90;;;;;;6176699;23;20029;-91
2022/08/23 00:50:40;;;;;;;9.90;5.35;;;17.00;99.90;;;;;;6176537;23;20372;-92
2022/08/23 00:53:19;;;;;;;9.57;5.30;;;17.00;99.90;;;;;;6175138;23;20017;-91
2022/08/23 00:55:48;;;;;;;9.32;5.00;;;17.00;99.90;;;;;;6174126;23;20021;-91
2022/08/23 00:58:17;;;;;;;8.23;4.93;;;16.90;99.90;;;;;;6177544;23;20017;-92
2022/08/23 01:00:43;;;;;;;11.55;5.22;;;16.90;99.90;;;;;;6179686;23;20314;-91
2022/08/23 01:03:11;;;;;;;8.32;4.55;;;16.90;99.90;;;;;;6177930;23;20059;-91
2022/08/23 01:05:54;;;;;;;10.38;4.88;;;16.90;99.90;;;;;;6176027;22;20028;-91
2022/08/23 01:08:24;;;;;;;7.82;4.22;;;16.80;99.90;;;;;;6175005;23;20131;-91
2022/08/23 01:10:56;;;;;;;11.00;4.60;;;16.80;99.90;;;;;;6174304;23;20353;-91
2022/08/23 01:13:28;;;;;;;12.80;5.18;;;16.80;99.90;;;;;;6175607;23;20013;-92
2022/08/23 01:16:15;;;;;;;10.43;5.00;;;16.80;99.90;;;;;;6174690;23;20013;-92
2022/08/23 01:18:42;;;;;;;9.73;5.03;;;16.80;99.90;;;;;;6174472;22;20453;-91
2022/08/23 01:21:18;;;;;;;10.50;4.90;;;16.80;99.90;;;;;;6149869;23;20031;-91
2022/08/23 01:23:54;;;;;;;9.07;4.50;;;16.80;99.90;;;;;;6175485;23;20100;-89
2022/08/23 01:26:23;;;;;;;8.00;4.97;;;16.70;99.90;;;;;;6174806;23;20066;-91
2022/08/23 01:28:50;;;;;;;7.57;5.38;;;16.70;99.90;;;;;;6173777;23;20021;-91
2022/08/23 01:31:17;;;;;;;11.35;6.35;;;17.00;99.90;;;;;;6174669;23;20017;-91
2022/08/23 01:33:46;;;;;;;11.30;6.00;;;16.70;99.90;;;;;;6150137;23;20028;-91
2022/08/23 01:36:15;;;;;;;10.35;5.85;;;16.60;99.90;;;;;;6174597;23;20024;-91
2022/08/23 01:38:41;;;;;;;9.85;5.30;;;16.60;99.90;;;;;;6173828;23;20028;-92
2022/08/23 01:41:08;;;;;;;9.18;4.72;;;16.70;99.90;;;;;;6174798;22;20009;-91
2022/08/23 01:43:34;;;;;;;9.40;5.65;;;16.60;99.90;;;;;;6176050;23;20017;-91
2022/08/23 01:46:08;;;;;;;10.48;5.78;;;16.90;99.90;;;;;;6176716;22;20013;-91
2022/08/23 01:48:34;;;;;;;8.75;5.38;;;16.60;99.90;;;;;;6174312;23;20024;-92
2022/08/23 01:50:59;;;;;;;9.50;5.90;;;16.60;99.90;;;;;;6174643;23;20021;-91
2022/08/23 01:53:25;;;;;;;8.98;5.82;;;16.80;99.90;;;;;;6173861;22;20059;-91
2022/08/23 01:55:50;;;;;;;11.45;6.50;;;16.50;99.90;;;;;;6149446;22;20013;-91
2022/08/23 01:58:16;;;;;;;11.02;6.13;;;16.50;99.90;;;;;;6176494;22;20021;-91
2022/08/23 02:00:43;;;;;;;10.40;6.78;;;16.50;99.90;;;;;;6176527;22;20017;-91
2022/08/23 02:03:11;;;;;;;10.02;6.35;;;16.70;99.90;;;;;;6176338;23;20096;-90
2022/08/23 02:05:39;;;;;;;11.23;6.65;;;16.40;99.90;;;;;;6149432;23;20024;-91
2022/08/23 02:10:51;;;;;;;10.75;5.47;;;16.40;99.90;;;;;;6174121;23;20357;-91
2022/08/23 02:13:17;;;;;;;9.30;5.43;;;16.50;99.90;;;;;;6175222;23;20074;-90
2022/08/23 02:15:43;;;;;;;11.07;5.65;;;16.40;99.90;;;;;;6173967;23;20049;-91
2022/08/23 02:18:11;;;;;;;10.25;5.50;;;16.30;99.90;;;;;;6174253;23;20375;-91
2022/08/23 02:20:39;;;;;;;8.50;5.80;;;16.30;99.90;;;;;;6175899;23;20068;-91
2022/08/23 02:23:05;;;;;;;10.02;5.88;;;16.30;99.90;;;;;;6175713;23;20070;-90
2022/08/23 02:25:30;;;;;;;11.95;6.43;;;16.30;99.90;;;;;;6176277;23;20017;-91
2022/08/23 02:27:56;;;;;;;10.00;6.53;;;16.30;99.90;;;;;;6149348;22;20042;-91
2022/08/23 02:30:21;;;;;;;11.25;6.53;;;16.30;99.90;;;;;;6298914;22;20021;-91
2022/08/23 02:32:47;;;;;;;8.40;5.60;;;16.30;99.90;;;;;;6274729;22;20109;-91
2022/08/23 02:35:12;;;;;;;10.77;6.95;;;16.20;99.90;;;;;;6274395;22;20026;-91
2022/08/23 02:37:38;;;;;;;10.73;6.90;;;16.20;99.90;;;;;;6301412;22;20011;-91
2022/08/23 02:40:04;;;;;;;10.45;6.55;;;16.20;99.90;;;;;;6274517;22;20019;-91
2022/08/23 02:42:30;;;;;;;12.57;7.38;;;16.20;99.90;;;;;;6275190;22;20019;-91
2022/08/23 02:44:56;;;;;;;11.27;7.25;;;16.10;99.90;;;;;;6273955;22;20022;-91
2022/08/23 02:47:22;;;;;;;10.90;7.43;;;16.20;99.90;;;;;;6274759;22;20043;-91
2022/08/23 02:49:48;;;;;;;10.07;7.43;;;16.20;99.90;;;;;;6274189;22;20015;-91
2022/08/23 02:52:13;;;;;;;12.60;7.72;;;16.10;99.90;;;;;;6274528;22;20022;-91
2022/08/23 02:54:39;;;;;;;13.80;9.10;;;16.00;99.90;;;;;;6273762;22;20447;-91
2022/08/23 02:57:05;;;;;;;11.50;8.60;;;16.00;99.90;;;;;;6302345;22;20030;-90
2022/08/23 02:59:31;;;;;;;12.93;8.40;;;16.00;99.90;;;;;;6274499;22;20019;-91
2022/08/23 03:01:56;;;;;;;13.35;8.95;;;16.00;99.90;;;;;;6274533;22;20018;-91
2022/08/23 03:04:22;;;;;;;13.13;9.43;;;16.00;99.90;;;;;;6274601;22;20027;-91
2022/08/23 03:06:48;;;;;;;14.48;8.88;;;16.00;99.90;;;;;;6273445;22;20414;-91
2022/08/23 03:09:14;;;;;;;11.82;8.98;;;16.00;99.90;;;;;;6274435;22;20058;-91
2022/08/23 03:11:44;;;;;;;11.98;8.27;;;15.90;99.90;;;;;;6273637;22;20015;-91
2022/08/23 03:14:10;;;;;;;11.25;7.88;;;16.00;99.90;;;;;;6249350;22;20057;-91
2022/08/23 03:16:35;;;;;;;10.90;8.32;;;16.00;99.90;;;;;;6248145;22;20030;-91
2022/08/23 03:19:01;;;;;;;12.48;8.60;;;15.90;99.90;;;;;;6274664;22;20141;-91
2022/08/23 03:21:26;;;;;;;12.75;8.43;;;15.90;99.90;;;;;;6273684;22;20027;-91
2022/08/23 03:23:52;;;;;;;13.88;8.95;;;15.90;99.90;;;;;;6277902;22;20126;-92
2022/08/23 03:26:18;;;;;;;12.75;9.05;;;15.90;99.90;;;;;;6250109;22;20011;-91
2022/08/23 03:28:45;;;;;;;13.63;8.05;;;15.90;99.90;;;;;;6287524;22;20514;-91
2022/08/23 03:31:13;;;;;;;12.52;7.97;;;15.90;99.90;;;;;;6274884;22;20051;-91
2022/08/23 03:33:39;;;;;;;14.10;9.70;;;15.90;99.90;;;;;;6248250;22;20011;-90
2022/08/23 03:36:07;;;;;;;11.07;7.78;;;15.90;99.90;;;;;;6273554;22;20023;-91
2022/08/23 03:38:34;;;;;;;13.02;9.45;;;15.90;99.90;;;;;;6274028;22;20115;-90
2022/08/23 03:41:00;;;;;;;12.50;9.68;;;15.90;99.90;;;;;;6302328;22;20348;-91
2022/08/23 03:43:26;;;;;;;15.68;10.73;;;15.90;99.90;;;;;;6273665;22;20015;-91
2022/08/23 03:45:52;;;;;;;17.10;11.25;;;15.90;99.90;;;;;;6274448;22;20041;-91
2022/08/23 03:48:18;;;;;;;13.93;10.60;;;15.90;99.90;;;;;;6302872;22;20019;-91
2022/08/23 03:50:44;;;;;;;15.27;10.63;;;15.90;99.90;;;;;;6249081;22;20015;-91
2022/08/23 03:53:10;;;;;;;12.50;9.00;;;15.90;99.90;;;;;;6304069;22;20019;-91
2022/08/23 03:55:35;;;;;;;12.88;9.55;;;15.90;99.90;;;;;;6275759;22;20343;-91
2022/08/23 03:58:01;;;;;;;12.32;9.27;;;15.90;99.90;;;;;;6304000;22;20086;-91
2022/08/23 04:00:27;;;;;;;13.43;10.35;;;15.90;99.90;;;;;;6250604;22;20022;-91
2022/08/23 04:02:53;;;;;;;13.02;9.27;;;15.90;99.90;;;;;;6275348;22;20034;-91
2022/08/23 04:05:18;;;;;;;13.00;9.63;;;15.90;99.90;;;;;;6250015;22;20019;-90
2022/08/23 04:07:44;;;;;;;12.23;10.02;;;16.00;99.90;;;;;;6275670;22;20039;-91
2022/08/23 04:10:13;;;;;;;14.25;10.63;;;15.80;99.90;;;;;;6276096;22;20025;-91
2022/08/23 04:12:39;;;;;;;12.45;9.40;;;15.80;99.90;;;;;;6276082;22;20054;-91
2022/08/23 04:15:05;;;;;;;11.93;9.00;;;15.80;99.90;;;;;;6302874;22;20026;-91
2022/08/23 04:17:31;;;;;;;12.15;9.20;;;15.80;99.90;;;;;;6303509;22;20022;-91
2022/08/23 04:19:56;;;;;;;16.83;10.32;;;15.80;99.90;;;;;;6302774;22;20015;-90
2022/08/23 04:22:23;;;;;;;22.58;14.90;;;15.80;99.90;;;;;;6303999;22;20181;-91
2022/08/23 04:24:48;;;;;;;22.63;16.15;;;15.80;99.90;;;;;;6275203;22;20447;-91
2022/08/23 04:27:14;;;;;;;17.75;13.18;;;15.80;99.90;;;;;;6303341;22;20061;-91
2022/08/23 04:29:40;;;;;;;18.63;14.23;;;15.80;99.90;;;;;;6214179;22;20025;-90
2022/08/23 04:32:08;;;;;;;20.00;14.50;;;15.80;99.90;;;;;;6149611;23;20017;-91
2022/08/23 04:34:35;;;;;;;21.17;15.45;;;15.80;99.90;;;;;;6174600;23;20017;-91
2022/08/23 04:37:01;;;;;;;21.52;16.42;;;15.70;99.90;;;;;;6174587;23;20036;-91
2022/08/23 04:39:27;;;;;;;25.02;16.98;;;15.80;99.90;;;;;;6149732;23;20453;-91
2022/08/23 04:44:36;;;;;;;22.08;16.45;;;15.80;99.90;;;;;;6176298;23;20028;-91
2022/08/23 04:47:02;;;;;;;21.92;16.45;;;15.80;99.90;;;;;;6149642;23;20013;-91
2022/08/23 04:49:28;;;;;;;22.48;17.10;;;15.80;99.90;;;;;;6174780;23;20092;-91
2022/08/23 04:51:54;;;;;;;19.35;15.77;;;15.80;99.90;;;;;;6176113;23;20013;-91
2022/08/23 04:54:21;;;;;;;22.50;16.80;;;16.00;99.90;;;;;;6174892;23;20090;-90
2022/08/23 04:56:47;;;;;;;18.85;16.48;;;15.80;99.90;;;;;;6176180;23;20055;-91
2022/08/23 04:59:13;;;;;;;19.20;15.43;;;15.80;99.90;;;;;;6174369;23;20017;-91
2022/08/23 05:01:39;;;;;;;22.05;17.13;;;15.80;99.90;;;;;;6173567;23;20322;-90
2022/08/23 05:04:04;;;;;;;18.02;16.08;;;15.80;99.90;;;;;;6176750;23;20181;-91
2022/08/23 05:06:30;;;;;;;19.38;14.68;;;15.80;99.90;;;;;;6174865;23;20108;-91
2022/08/23 05:08:57;;;;;;;21.73;17.38;;;15.80;99.90;;;;;;6175861;23;20065;-91
2022/08/23 05:11:23;;;;;;;19.20;15.82;;;15.80;99.90;;;;;;6176520;22;20017;-91
2022/08/23 05:13:48;;;;;;;20.50;16.20;;;15.80;99.90;;;;;;6174372;23;20019;-92
2022/08/23 05:16:15;;;;;;;18.58;16.15;;;15.90;99.90;;;;;;6174321;23;20013;-91
2022/08/23 05:18:41;;;;;;;20.38;16.60;;;15.90;99.90;;;;;;6174254;23;20459;-91
2022/08/23 05:21:07;;;;;;;21.08;16.20;;;16.30;99.90;;;;;;6176673;23;20021;-91
2022/08/23 05:23:33;;;;;;;18.88;15.75;;;16.00;99.90;;;;;;6176209;23;20358;-91
2022/08/23 05:25:59;;;;;;;21.60;15.32;;;16.00;99.90;;;;;;6176434;23;20052;-90
2022/08/23 05:28:28;;;;;;;16.40;13.65;;;16.10;99.90;;;;;;6183164;22;20029;-91
2022/08/23 05:31:09;;;;;;;17.95;14.93;;;16.10;99.90;;;;;;6302010;22;20017;-91
2022/08/23 05:33:35;;;;;;;13.32;10.65;;;16.10;99.90;;;;;;6275222;22;20050;-91
2022/08/23 05:36:02;;;;;;;19.85;14.50;;;16.50;99.90;;;;;;6302980;22;20370;-91
2022/08/23 05:38:29;;;;;;;19.75;15.13;;;16.10;99.90;;;;;;6275119;22;20011;-91
2022/08/23 05:40:56;;;;;;;17.83;15.70;;;16.20;99.90;;;;;;6274701;22;20023;-91
2022/08/23 05:43:24;;;;;;;18.10;14.45;;;16.10;99.90;;;;;;6249578;22;20064;-91
2022/08/23 05:46:04;;;;;;;18.85;16.85;;;16.10;99.90;;;;;;6301378;22;20030;-91
2022/08/23 05:48:32;;;;;;;18.50;15.20;;;16.10;99.90;;;;;;6302844;22;20022;-91
2022/08/23 05:51:07;;;;;;;18.90;15.45;;;16.10;99.90;;;;;;6274866;22;20022;-90
2022/08/23 05:53:33;;;;;;;19.00;15.48;;;16.10;99.90;;;;;;6274955;22;20094;-91
2022/08/23 05:56:08;;;;;;;19.58;17.40;;;16.10;99.90;;;;;;6275117;22;20049;-91
2022/08/23 05:58:34;;;;;;;19.02;15.77;;;16.10;99.90;;;;;;6274705;22;20428;-91
2022/08/23 06:00:59;;;;;;;17.95;15.70;;;16.20;99.90;;;;;;6274166;22;20029;-90
2022/08/23 06:03:25;;;;;;;20.65;15.38;;;16.20;99.90;;;;;;6302616;22;20027;-91
2022/08/23 06:05:57;;;;;;;20.25;15.43;;;16.20;99.90;;;;;;6274436;22;20328;-92
2022/08/23 06:08:22;;;;;;;17.10;15.20;;;16.20;99.90;;;;;;6274974;22;20121;-91
2022/08/23 06:10:48;;;;;;;18.67;14.80;;;16.30;99.90;;;;;;6274831;22;20059;-90
2022/08/23 06:13:13;;;;;;;19.33;14.43;;;16.30;99.90;;;;;;6249479;22;20050;-90
2022/08/23 06:15:43;;;;;;;18.27;14.95;;;16.30;99.90;;;;;;6275081;22;20012;-90
2022/08/23 06:18:08;;;;;;;17.50;15.30;;;16.30;99.90;;;;;;6304094;22;20228;-90
2022/08/23 06:20:34;;;;;;;17.92;15.40;;;16.40;99.90;;;;;;6304314;22;20082;-91
2022/08/23 06:23:00;;;;;;;18.95;14.77;;;16.30;99.90;;;;;;6304056;22;20310;-91
2022/08/23 06:25:26;;;;;;;17.83;15.10;;;16.50;99.90;;;;;;6304958;22;20086;-91
2022/08/23 06:27:51;;;;;;;20.90;15.18;;;16.50;99.90;;;;;;6276591;22;20019;-91
2022/08/23 06:30:17;;;;;;;18.60;15.73;;;16.50;99.90;;;;;;6304067;22;20046;-90
2022/08/23 06:32:42;;;;;;;19.67;16.00;;;16.50;99.90;;;;;;6276817;22;20029;-91
2022/08/23 06:35:08;;;;;;;18.63;15.20;;;16.60;99.90;;;;;;6279667;22;20034;-90
2022/08/23 06:37:34;;;;;;;18.40;15.80;;;16.60;99.90;;;;;;6303546;22;20072;-90
2022/08/23 06:39:59;;;;;;;16.90;15.10;;;16.70;99.90;;;;;;6274162;22;20015;-90
2022/08/23 06:42:25;;;;;;;19.27;15.52;;;16.70;99.90;;;;;;6302568;22;20096;-92
2022/08/23 06:44:51;;;;;;;19.23;16.27;;;16.70;99.90;;;;;;6248407;22;20023;-91
2022/08/23 06:47:16;;;;;;;18.65;15.55;;;16.80;99.90;;;;;;6302546;22;20015;-91
2022/08/23 06:49:42;;;;;;;19.48;15.18;;;16.80;99.90;;;;;;6301920;22;20047;-91
2022/08/23 06:52:08;;;;;;;17.92;15.80;;;16.90;99.90;;;;;;6275053;22;20042;-90
2022/08/23 06:54:34;;;;;;;18.10;15.40;;;16.90;99.90;;;;;;6248999;22;20019;-91
2022/08/23 06:57:01;;;;;;;19.55;15.65;;;17.00;99.90;;;;;;6302170;22;20034;-91
2022/08/23 06:59:27;;;;;;;17.52;14.18;;;17.10;99.90;;;;;;6275729;22;20046;-91
2022/08/23 07:01:56;;;;;;;18.63;15.10;;;17.10;99.90;;;;;;6249270;22;20020;-90
2022/08/23 07:04:27;;;;;;;16.35;14.02;;;17.20;99.90;;;;;;6302118;22;20114;-91
2022/08/23 07:06:54;;;;;;;17.42;13.48;;;17.30;99.90;;;;;;6274598;22;20022;-90
2022/08/23 07:09:20;;;;;;;15.77;13.23;;;17.30;99.90;;;;;;6274352;22;20020;-91
2022/08/23 07:11:46;;;;;;;15.52;12.38;;;17.40;99.90;;;;;;6247940;22;20046;-91
2022/08/23 07:14:14;;;;;;;16.45;11.27;;;17.50;99.90;;;;;;6274832;22;20403;-91
2022/08/23 07:16:46;;;;;;;16.05;12.23;;;17.60;99.90;;;;;;6274482;22;20041;-91
2022/08/23 07:19:12;;;;;;;12.73;11.10;;;17.70;99.90;;;;;;6274349;22;20418;-91
2022/08/23 07:21:38;;;;;;;15.68;11.25;;;17.90;99.90;;;;;;6274876;22;20008;-91
2022/08/23 07:24:04;;;;;;;11.32;9.45;;;17.90;99.90;;;;;;6250768;22;20423;-91
2022/08/23 07:26:31;;;;;;;13.25;10.07;;;18.00;99.90;;;;;;6276398;22;20457;-91
2022/08/23 07:28:56;;;;;;;12.85;9.68;;;18.10;99.90;;;;;;6303515;22;20019;-91
2022/08/23 07:31:26;;;;;;;14.20;9.63;;;18.20;99.90;;;;;;6251067;22;20105;-91
2022/08/23 07:33:53;;;;;;;12.93;8.10;;;18.30;99.90;;;;;;6276868;22;20019;-91
2022/08/23 07:36:21;;;;;;;13.60;7.57;;;18.40;99.90;;;;;;6276041;22;20493;-91
2022/08/23 07:38:48;;;;;;;9.98;7.03;;;18.50;99.90;;;;;;6303354;22;20061;-90
2022/08/23 07:41:16;;;;;;;10.00;6.80;;;18.50;99.90;;;;;;6250542;22;20011;-91
2022/08/23 07:43:43;;;;;;;11.43;7.68;;;18.60;99.90;;;;;;6303646;22;20015;-91
2022/08/23 07:46:10;;;;;;;9.00;6.82;;;18.70;99.90;;;;;;6276769;22;20018;-91
2022/08/23 07:48:36;;;;;;;10.05;7.13;;;18.80;99.90;;;;;;6276212;22;20026;-91
2022/08/23 07:51:06;;;;;;;13.82;5.90;;;18.90;99.90;;;;;;6276067;22;20015;-91
2022/08/23 07:53:32;;;;;;;9.23;5.63;;;19.00;99.90;;;;;;6250222;22;20046;-91
2022/08/23 07:55:58;;;;;;;9.60;5.80;;;19.10;99.90;;;;;;6249995;22;20090;-92
2022/08/23 07:58:25;;;;;;;9.00;5.13;;;19.10;99.90;;;;;;6276196;22;20023;-91
2022/08/23 08:00:51;;;;;;;13.48;6.75;;;19.20;99.90;;;;;;6275568;22;20027;-91
2022/08/23 08:03:17;;;;;;;8.65;6.05;;;19.30;99.90;;;;;;6276256;22;20072;-91
2022/08/23 08:05:43;;;;;;;10.45;5.18;;;19.40;99.90;;;;;;6303302;22;20328;-91
2022/08/23 08:08:10;;;;;;;7.53;4.85;;;19.50;99.90;;;;;;6303795;22;20019;-91
2022/08/23 08:10:40;;;;;;;8.02;4.53;;;19.60;99.90;;;;;;6275288;22;20027;-91
2022/08/23 08:13:09;;;;;;;6.93;4.88;;;19.80;99.90;;;;;;6276920;22;20367;-91
2022/08/23 08:15:40;;;;;;;8.25;4.50;;;20.00;99.90;;;;;;6275296;22;20456;-90
2022/08/23 08:18:06;;;;;;;10.35;4.63;;;20.20;99.90;;;;;;6276099;22;20462;-90
2022/08/23 08:20:34;;;;;;;8.10;4.28;;;20.40;99.90;;;;;;6275748;22;20019;-90
2022/08/23 08:23:00;;;;;;;8.02;4.35;;;20.50;99.90;;;;;;6276117;22;20452;-90
2022/08/23 08:25:25;;;;;;;8.38;4.28;;;20.70;99.90;;;;;;6275253;22;20022;-91
2022/08/23 08:27:51;;;;;;;7.57;3.97;;;20.80;99.90;;;;;;6275796;22;20018;-91
2022/08/23 08:30:16;;;;;;;7.45;4.03;;;21.30;99.90;;;;;;6190064;22;20025;-91
2022/08/23 08:32:42;;;;;;;9.48;4.00;;;21.10;99.90;;;;;;6176028;22;20017;-91
2022/08/23 08:35:08;;;;;;;7.60;4.53;;;21.30;99.90;;;;;;6174637;22;20088;-91
2022/08/23 08:37:35;;;;;;;5.63;3.70;;;21.50;99.90;;;;;;6174415;23;20024;-92
2022/08/23 08:40:02;;;;;;;5.75;3.75;;;21.70;99.90;;;;;;6176414;23;20017;-92
2022/08/23 08:42:48;;;;;;;7.25;3.28;;;21.80;99.90;;;;;;6174984;23;20010;-92
2022/08/23 08:45:43;;;;;;;9.20;3.78;;;22.50;99.90;;;;;;6175385;23;20029;-92
2022/08/23 08:48:14;;;;;;;7.40;3.50;;;22.60;99.90;;;;;;6174436;23;20453;-93
2022/08/23 08:50:48;;;;;;;8.35;3.67;;;22.70;99.90;;;;;;6174641;23;20151;-92
2022/08/23 08:53:27;;;;;;;;;;;22.80;99.90;;;;;;6174874;23;20013;-92
2022/08/23 08:56:00;;;;;;;6.03;3.70;;;22.90;99.90;;;;;;6174730;23;19947;-91
2022/08/23 08:58:32;;;;;;;6.78;3.38;;;23.00;99.90;;;;;;6176479;23;20017;-92
2022/08/23 09:00:58;;;;;;;8.00;3.00;;;23.10;99.90;;;;;;6174771;23;20044;-92
2022/08/23 09:03:29;;;;;;;5.80;2.85;;;23.30;99.90;;;;;;6176473;23;20088;-91
2022/08/23 09:06:15;;;;;;;8.23;3.15;;;23.50;99.90;;;;;;6149822;23;20066;-92
2022/08/23 09:09:19;;;;;;;6.20;3.17;;;23.40;99.90;;;;;;6173922;23;20028;-92
2022/08/23 09:12:12;;;;;;;5.28;3.45;;;23.60;99.90;;;;;;6174111;23;20024;-92
2022/08/23 09:15:02;;;;;;;7.80;3.40;;;23.70;99.90;;;;;;6175894;23;20467;-92
2022/08/23 09:17:42;;;;;;;5.55;2.80;;;23.90;99.90;;;;;;6174533;23;20278;-91
2022/08/23 09:20:11;;;;;;;6.47;3.15;;;24.10;99.90;;;;;;6174866;23;20013;-91
2022/08/23 09:22:41;;;;;;;6.63;3.35;;;24.30;99.90;;;;;;6173329;23;20048;-92
2022/08/23 09:25:10;;;;;;;9.32;3.08;;;24.30;99.90;;;;;;6174614;23;20066;-92
2022/08/23 09:27:40;;;;;;;7.25;3.17;;;24.40;99.90;;;;;;6175945;23;20044;-91
2022/08/23 09:30:07;;;;;;;6.47;3.10;;;24.50;99.90;;;;;;6272408;22;20447;-92
2022/08/23 09:32:40;;;;;;;8.77;3.25;;;24.60;99.90;;;;;;6274940;22;20078;-92
2022/08/23 09:35:10;;;;;;;8.32;3.53;;;24.80;99.90;;;;;;6302712;22;20019;-91
2022/08/23 09:38:00;;;;;;;5.40;2.75;;;24.90;99.90;;;;;;6302405;22;20019;-92
2022/08/23 09:40:34;;;;;;;5.97;2.47;;;24.90;98.70;;;;;;6274875;22;20051;-92
2022/08/23 09:43:11;;;;;;;10.35;3.58;;;24.90;99.10;;;;;;6302869;22;20335;-92
2022/08/23 09:45:59;;;;;;;9.02;2.95;;;25.10;98.60;;;;;;6302599;22;20016;-92
2022/08/23 09:48:41;;;;;;;5.47;2.72;;;25.30;98.50;;;;;;6249961;22;20030;-91
2022/08/23 09:51:24;;;;;;;8.82;3.90;;;25.30;99.00;;;;;;6275126;22;20026;-92
2022/08/23 09:54:02;;;;;;;7.40;2.80;;;25.50;96.40;;;;;;6302126;22;20018;-92
2022/08/23 09:56:32;;;;;;;5.75;2.60;;;25.70;97.50;;;;;;6275284;22;20350;-92
2022/08/23 09:58:58;;;;;;;5.45;2.75;;;25.90;97.40;;;;;;6275436;22;20015;-92
2022/08/23 10:01:29;;;;;;;6.13;2.95;;;26.00;97.60;;;;;;6302326;22;20029;-93
2022/08/23 10:04:11;;;;;;;5.75;2.58;;;26.10;97.60;;;;;;6302758;22;20029;-92
2022/08/23 10:06:40;;;;;;;5.63;2.90;;;26.20;97.00;;;;;;6273825;22;20025;-92
2022/08/23 10:09:08;;;;;;;7.28;2.80;;;26.30;96.90;;;;;;6302296;22;20054;-92
2022/08/23 10:11:42;;;;;;;7.70;2.88;;;26.40;97.00;;;;;;6301987;22;20011;-91
2022/08/23 10:14:08;;;;;;;6.90;2.67;;;26.50;96.70;;;;;;6302755;22;20037;-92
2022/08/23 10:16:47;;;;;;;7.88;2.72;;;26.60;97.00;;;;;;6302322;22;20007;-92
2022/08/23 10:19:19;;;;;;;5.25;2.30;;;26.70;96.00;;;;;;6302577;22;20022;-92
2022/08/23 10:21:54;;;;;;;9.05;3.05;;;26.70;94.50;;;;;;6301217;22;20094;-92
2022/08/23 10:24:45;;;;;;;5.63;2.38;;;26.80;95.80;;;;;;6302741;22;20019;-92
2022/08/23 10:30:15;;;;;;;7.30;2.35;;;27.10;95.20;;;;;;6192863;22;20029;-92
2022/08/23 10:32:56;;;;;;;6.32;2.30;;;27.20;95.50;;;;;;6149274;23;20061;-92
2022/08/23 10:36:11;;;;;;;7.10;2.20;;;27.20;94.80;;;;;;6175808;22;20021;-92
2022/08/23 10:38:57;;;;;;;4.25;2.10;;;27.30;94.30;;;;;;6157058;23;20087;-92
2022/08/23 10:41:34;;;;;;;5.07;2.13;;;27.30;94.20;;;;;;6207434;23;20024;-92
2022/08/23 10:44:03;;;;;;;5.85;2.35;;;27.20;94.10;;;;;;6207289;23;20027;-92
2022/08/23 10:46:32;;;;;;;4.57;2.03;;;27.30;94.20;;;;;;6182333;23;20013;-92
2022/08/23 10:49:01;;;;;;;5.50;2.30;;;27.40;94.00;;;;;;6181921;23;20052;-92
2022/08/23 10:51:31;;;;;;;5.20;2.17;;;27.40;93.60;;;;;;6181535;23;20338;-91
2022/08/23 10:54:11;;;;;;;6.13;2.25;;;27.60;93.30;;;;;;6206508;23;20056;-92
2022/08/23 10:56:37;;;;;;;4.95;1.98;;;27.70;93.80;;;;;;6208976;23;20017;-92
2022/08/23 10:59:17;;;;;;;6.60;2.33;;;27.80;94.00;;;;;;6210772;23;20481;-92
2022/08/23 11:01:46;;;;;;;7.50;2.55;;;27.90;92.90;;;;;;6185227;23;20020;-92
2022/08/23 11:04:36;;;;;;;8.00;2.40;;;27.90;93.10;;;;;;6185210;23;20091;-92
2022/08/23 11:07:18;;;;;;;7.65;2.60;;;28.10;92.30;;;;;;6210443;23;20445;-93
2022/08/23 11:09:57;;;;;;;7.10;2.50;;;28.20;91.90;;;;;;6152742;23;20021;-93
2022/08/23 11:12:26;;;;;;;6.07;2.53;;;28.30;92.00;;;;;;6177449;23;20020;-93
2022/08/23 11:14:55;;;;;;;8.32;2.22;;;28.30;92.30;;;;;;6176927;23;20092;-93
2022/08/23 11:17:29;;;;;;;7.95;2.22;;;28.50;92.40;;;;;;6179073;23;20028;-92
2022/08/23 11:19:58;;;;;;;8.65;2.63;;;28.60;91.70;;;;;;6177886;23;20013;-93
2022/08/23 11:22:53;;;;;;;7.57;2.47;;;28.70;92.10;;;;;;6177252;23;20122;-92
2022/08/23 11:25:18;;;;;;;7.30;2.20;;;28.80;92.00;;;;;;6177208;23;20058;-93
2022/08/23 11:27:44;;;;;;;6.57;2.47;;;29.00;91.80;;;;;;6152139;23;20021;-93
2022/08/23 11:30:31;;;;;;;12.52;2.83;;;29.10;91.30;;;;;;6176788;22;20061;-92
2022/08/23 11:33:36;;;;;;;184.93;19.17;;;29.10;90.10;;;;;;6151716;23;20025;-92
2022/08/23 11:36:08;;;;;;;7.07;2.83;;;29.20;89.60;;;;;;6177572;23;20017;-92
2022/08/23 11:38:46;;;;;;;10.73;2.58;;;29.20;90.20;;;;;;6176600;22;20341;-92
2022/08/23 11:41:17;;;;;;;10.10;2.90;;;29.40;90.10;;;;;;6177064;22;20099;-93
2022/08/23 11:43:48;;;;;;;7.90;2.50;;;29.40;89.90;;;;;;6176794;22;20021;-93
2022/08/23 11:46:33;;;;;;;6.78;2.33;;;29.40;90.50;;;;;;6177136;23;20441;-93
2022/08/23 11:49:04;;;;;;;5.75;2.42;;;29.50;89.90;;;;;;6176957;23;20017;-93
2022/08/23 11:52:07;;;;;;;10.13;2.50;;;29.50;90.30;;;;;;6178861;22;20073;-93
2022/08/23 11:54:46;;;;;;;4.80;2.22;;;29.60;86.40;;;;;;6178233;23;20013;-92
2022/08/23 11:57:28;;;;;;;7.38;2.80;;;29.70;89.30;;;;;;6176751;22;20086;-93
2022/08/23 11:59:59;;;;;;;5.70;2.30;;;29.80;88.90;;;;;;6176741;23;20016;-92
2022/08/23 12:02:37;;;;;;;6.20;2.67;;;29.90;88.60;;;;;;6176714;22;20029;-93
2022/08/23 12:05:31;;;;;;;6.78;2.65;;;29.90;86.40;;;;;;6177074;22;20025;-93
2022/08/23 12:08:03;;;;;;;6.32;2.28;;;29.90;87.10;;;;;;6175259;23;20070;-94
2022/08/23 12:10:40;;;;;;;5.53;1.90;;;30.00;87.30;;;;;;6150331;23;20108;-93
2022/08/23 12:13:18;;;;;;;5.28;2.10;;;30.10;85.70;;;;;;6150389;22;20032;-93
2022/08/23 12:16:27;;;;;;;7.90;2.15;;;30.20;84.60;;;;;;6174662;23;20023;-93
2022/08/23 12:18:56;;;;;;;5.35;2.53;;;30.30;84.80;;;;;;6174188;23;20025;-93
2022/08/23 12:21:43;;;;;;;5.13;2.33;;;30.40;85.70;;;;;;6150131;23;20021;-93
2022/08/23 12:24:16;;;;;;;8.52;2.08;;;30.40;82.50;;;;;;6176724;23;20017;-94
2022/08/23 12:26:58;;;;;;;11.03;2.10;;;30.40;84.20;;;;;;6176920;23;20017;-94
2022/08/23 12:30:15;;;;;;;7.90;2.20;;;30.30;82.90;;;;;;6174384;23;20021;-94
2022/08/23 12:33:04;;;;;;;7.57;2.30;;;30.40;81.20;;;;;;6182130;23;20048;-93
2022/08/23 12:35:48;;;;;;;5.28;2.25;;;30.40;82.30;;;;;;6208377;23;20012;-93
2022/08/23 12:38:25;;;;;;;5.32;2.00;;;30.40;79.90;;;;;;6208052;23;20017;-93
2022/08/23 12:40:53;;;;;;;6.05;2.00;;;30.40;82.90;;;;;;6207615;23;20051;-93
2022/08/23 12:43:23;;;;;;;4.82;2.13;;;30.40;83.10;;;;;;6183255;23;20013;-93
2022/08/23 12:46:01;;;;;;;4.82;2.00;;;30.30;83.00;;;;;;6207232;23;20393;-93
2022/08/23 12:48:43;;;;;;;6.35;2.22;;;30.30;82.50;;;;;;6182968;23;20044;-93
2022/08/23 12:51:11;;;;;;;5.45;2.33;;;30.30;82.70;;;;;;6183303;23;20095;-94
2022/08/23 12:53:39;;;;;;;5.93;1.95;;;30.30;82.10;;;;;;6182542;23;20100;-93
2022/08/23 12:56:10;;;;;;;6.38;1.95;;;30.40;83.50;;;;;;6182960;23;20025;-93
2022/08/23 12:58:38;;;;;;;6.47;2.05;;;30.60;82.80;;;;;;6207891;23;20065;-92
2022/08/23 13:01:20;;;;;;;7.95;2.17;;;30.70;81.30;;;;;;6182189;23;20158;-93
2022/08/23 13:03:50;;;;;;;7.78;2.05;;;30.70;80.50;;;;;;6207440;23;20020;-94
2022/08/23 13:06:22;;;;;;;7.57;2.13;;;30.80;79.30;;;;;;6176939;23;20025;-94
2022/08/23 13:09:08;;;;;;;5.70;1.70;;;30.80;79.40;;;;;;6149822;23;20027;-92
2022/08/23 13:11:35;;;;;;;3.83;1.73;;;30.90;78.70;;;;;;6176531;22;20755;-93